EDT,Max TemperatureF,Mean TemperatureF,Min TemperatureF,Max Dew PointF,MeanDew PointF,Min DewpointF,Max Humidity, Mean Humidity, Min Humidity, Max Sea Level PressureIn, Mean Sea Level PressureIn, Min Sea Level PressureIn, Max VisibilityMiles, Mean VisibilityMiles, Min VisibilityMiles, Max Wind SpeedMPH, Mean Wind SpeedMPH, Max Gust SpeedMPH,PrecipitationIn, CloudCover, Events, WindDirDegrees
2013-5-1,68,47,26,34,27,21,87,48,19,30.47,30.43,30.38,10,10,7,10,2,17,0.00,0,,161
2013-5-2,73,53,33,43,33,28,93,61,25,30.52,30.45,30.40,10,10,8,21,3,25,0.00,3,,96
2013-5-3,59,44,30,39,35,25,93,65,47,30.54,30.47,30.38,10,10,8,14,5,18,0.00,0,,95
2013-5-4,57,44,28,41,34,27,93,69,44,30.40,30.36,30.33,10,10,2,12,4,17,0.00,0,,105
2013-5-5,60,42,24,39,31,19,100,64,39,30.35,30.30,30.26,10,9,1,12,3,17,0.00,0,,161
2013-5-6,64,45,26,43,36,21,93,73,34,30.29,30.23,30.17,10,7,0,12,3,18,0.00,1,,142
2013-5-7,77,60,42,52,46,37,100,68,31,30.18,30.15,30.10,10,7,0,10,3,16,0.00,3,,184
2013-5-8,73,58,44,57,52,41,94,76,53,30.23,30.18,30.10,10,9,2,13,4,22,0.00,4,,136
2013-5-9,62,58,53,55,53,50,94,89,77,30.10,29.98,29.90,10,6,0,12,5,,0.50,8,Thunderstorm,72
2013-5-10,73,62,51,57,52,48,94,77,53,29.95,29.93,29.90,10,7,0,10,3,,0.00,6,,98
2013-5-11,68,60,51,61,54,46,94,83,68,29.92,29.77,29.69,10,7,2,12,3,21,0.19,8,,201
2013-5-12,69,58,48,57,47,25,88,64,35,29.76,29.63,29.55,10,9,2,18,7,25,0.05,6,,248
2013-5-13,55,47,39,28,26,23,65,44,31,30.02,29.90,29.77,10,10,10,23,10,32,0.00,3,,254
2013-5-14,59,44,30,37,29,21,87,56,25,30.03,29.99,29.94,10,10,10,13,5,21,0.00,5,,305
2013-5-15,64,46,28,48,35,25,100,64,26,30.03,29.89,29.66,10,10,6,15,4,24,0.04,3,,194
2013-5-16,78,58,39,48,39,32,93,50,19,29.81,29.65,29.59,10,8,0,23,7,34,0.00,2,,274
2013-5-17,66,54,42,43,36,32,81,50,30,30.22,30.01,29.81,10,10,10,21,6,24,0.00,5,,327
2013-5-18,66,50,35,45,40,30,93,69,35,30.32,30.28,30.22,10,10,8,12,4,16,0.00,5,,147
2013-5-19,60,54,48,48,45,45,93,83,59,30.37,30.31,30.25,10,8,2,8,5,,0.01,7,,56
2013-5-20,77,62,48,57,53,46,94,77,50,30.23,30.02,29.93,10,6,0,16,4,24,0.05,5,,258
2013-5-21,55,50,46,54,47,45,94,85,77,30.10,30.00,29.97,10,6,0,16,5,23,0.24,8,Thunderstorm,67
2013-5-22,57,52,48,50,47,46,100,88,77,30.00,29.96,29.90,10,8,2,9,4,,0.51,8,Thunderstorm,70
2013-5-23,66,57,48,64,54,45,94,89,82,29.95,29.87,29.80,10,6,0,10,3,18,0.17,7,,184
2013-5-24,69,60,50,64,57,45,94,86,77,29.83,29.74,29.65,10,8,1,18,7,25,0.78,8,,210
2013-5-25,51,46,42,46,43,34,93,84,66,29.83,29.72,29.65,10,5,2,26,16,37,0.47,8,,359
2013-5-26,57,50,39,39,37,34,87,66,44,30.03,29.79,29.62,10,9,3,17,10,26,0.03,6,,294
2013-5-27,66,52,37,37,33,28,93,52,24,30.17,30.08,30.03,10,10,10,18,9,31,0.00,1,,271
2013-5-28,71,52,33,45,35,28,93,55,25,30.24,30.21,30.18,10,10,10,10,4,20,0.00,0,,197
2013-5-29,60,52,44,55,50,39,94,88,81,30.19,30.10,30.01,10,7,0,7,1,,0.10,7,,30
2013-5-30,84,70,55,63,58,54,94,68,37,30.05,30.02,29.99,10,9,1,21,6,30,0.00,2,,262
2013-5-31,93,75,57,64,60,52,88,62,34,30.07,30.00,29.90,10,9,3,16,5,23,0.00,0,,247